createdAt,value
2023-05-22T00:03:26.913Z,99.90
2023-05-22T00:07:09.011Z,99.90
2023-05-22T00:10:51.086Z,99.90
2023-05-22T00:14:33.062Z,99.90
2023-05-22T00:18:15.055Z,99.90
2023-05-22T00:21:57.091Z,99.90
2023-05-22T00:25:39.573Z,99.90
2023-05-22T00:29:21.576Z,99.90
2023-05-22T00:33:03.938Z,99.90
2023-05-22T00:36:45.954Z,99.90
2023-05-22T00:40:27.997Z,99.90
2023-05-22T00:44:10.619Z,99.90
2023-05-22T00:47:52.644Z,99.90
2023-05-22T00:51:34.735Z,99.90
2023-05-22T00:55:17.261Z,99.90
2023-05-22T00:58:59.872Z,99.90
2023-05-22T01:02:43.181Z,99.90
2023-05-22T01:06:26.379Z,99.90
2023-05-22T01:10:08.924Z,99.90
2023-05-22T01:13:56.898Z,99.90
2023-05-22T01:18:25.209Z,99.90
2023-05-22T01:22:25.188Z,99.90
2023-05-22T01:26:21.392Z,99.90
2023-05-22T01:30:41.036Z,99.90
2023-05-22T01:34:23.758Z,99.90
2023-05-22T01:38:07.739Z,99.90
2023-05-22T01:41:50.416Z,99.90
2023-05-22T01:45:32.439Z,99.90
2023-05-22T01:49:14.823Z,99.90
2023-05-22T01:53:15.596Z,99.90
2023-05-22T01:57:17.407Z,99.90
2023-05-22T02:01:03.744Z,99.90
2023-05-22T02:04:52.072Z,99.90
2023-05-22T02:08:39.009Z,99.90
2023-05-22T02:12:23.196Z,99.90
2023-05-22T02:16:06.472Z,99.90
2023-05-22T02:19:48.598Z,99.90
2023-05-22T02:23:30.685Z,99.90
2023-05-22T02:27:13.074Z,99.90
2023-05-22T02:30:56.313Z,99.90
2023-05-22T02:34:38.311Z,99.90
2023-05-22T02:38:20.422Z,99.90
2023-05-22T02:42:02.426Z,99.90
2023-05-22T02:45:44.409Z,99.90
2023-05-22T02:49:26.370Z,99.90
2023-05-22T02:53:08.530Z,99.90
2023-05-22T02:56:50.560Z,99.90
2023-05-22T03:00:32.663Z,99.90
2023-05-22T03:04:15.213Z,99.90
2023-05-22T03:07:58.115Z,99.90
2023-05-22T03:11:40.149Z,99.90
2023-05-22T03:15:22.119Z,99.90
2023-05-22T03:19:17.010Z,99.90
2023-05-22T03:22:59.063Z,99.90
2023-05-22T03:26:41.986Z,99.90
2023-05-22T03:30:24.082Z,99.90
2023-05-22T03:34:07.343Z,99.90
2023-05-22T03:37:49.399Z,99.90
2023-05-22T03:41:31.560Z,99.90
2023-05-22T03:45:13.649Z,99.90
2023-05-22T03:48:55.751Z,99.90
2023-05-22T03:52:38.151Z,99.90
2023-05-22T03:56:20.144Z,99.90
2023-05-22T04:00:06.330Z,99.90
2023-05-22T04:03:48.289Z,99.90
2023-05-22T04:07:30.273Z,99.90
2023-05-22T04:11:15.751Z,99.90
2023-05-22T04:14:57.808Z,99.90
2023-05-22T04:18:39.771Z,99.90
2023-05-22T04:22:22.785Z,99.90
2023-05-22T04:26:04.928Z,99.90
2023-05-22T04:29:47.143Z,99.90
2023-05-22T04:33:29.100Z,99.90
2023-05-22T04:37:11.758Z,99.90
2023-05-22T04:40:54.304Z,99.90
2023-05-22T04:44:36.565Z,99.90
2023-05-22T04:48:19.566Z,99.90
2023-05-22T04:52:04.888Z,99.90
2023-05-22T04:55:46.914Z,99.90
2023-05-22T04:59:28.900Z,99.90
2023-05-22T05:03:11.941Z,99.90
2023-05-22T05:06:55.199Z,99.90
2023-05-22T05:10:37.407Z,99.90
2023-05-22T05:14:19.962Z,99.90
2023-05-22T05:18:02.012Z,99.90
2023-05-22T05:21:44.060Z,99.90
2023-05-22T05:25:26.124Z,99.90
2023-05-22T05:29:08.090Z,99.90
2023-05-22T05:32:50.177Z,99.90
2023-05-22T05:36:32.374Z,99.90
2023-05-22T05:40:14.563Z,99.90
2023-05-22T05:43:59.989Z,99.90
2023-05-22T05:47:42.233Z,99.90
2023-05-22T05:51:24.349Z,99.90
2023-05-22T05:55:06.596Z,99.90
2023-05-22T05:58:48.583Z,99.90
2023-05-22T06:02:31.366Z,99.90
2023-05-22T06:06:14.161Z,99.90
2023-05-22T06:09:56.178Z,99.90
2023-05-22T06:13:38.154Z,99.90
2023-05-22T06:17:20.171Z,99.90
2023-05-22T06:21:02.190Z,99.90
2023-05-22T06:24:44.219Z,99.90
2023-05-22T06:28:26.350Z,99.90
2023-05-22T06:32:08.840Z,99.90
2023-05-22T06:35:50.957Z,99.90
2023-05-22T06:39:32.942Z,99.90
2023-05-22T06:43:14.939Z,99.90
2023-05-22T06:46:58.331Z,99.90
2023-05-22T06:50:40.716Z,99.90
2023-05-22T06:54:23.036Z,99.90
2023-05-22T06:58:05.161Z,99.90
2023-05-22T07:01:47.294Z,99.90
2023-05-22T07:05:29.500Z,99.90
2023-05-22T07:09:11.776Z,99.90
2023-05-22T07:12:54.258Z,99.90
2023-05-22T07:16:37.095Z,99.90
2023-05-22T07:20:19.207Z,99.90
2023-05-22T07:24:08.093Z,99.90
2023-05-22T07:27:50.131Z,99.90
2023-05-22T07:31:34.418Z,99.90
2023-05-22T07:35:16.696Z,99.90
2023-05-22T07:38:59.043Z,99.90
2023-05-22T07:42:41.773Z,99.90
2023-05-22T07:46:23.826Z,99.90
2023-05-22T07:50:06.776Z,99.90
2023-05-22T07:53:48.741Z,99.90
2023-05-22T07:57:30.815Z,99.90
2023-05-22T08:01:13.099Z,99.90
2023-05-22T08:04:55.113Z,99.90
2023-05-22T08:08:37.127Z,99.90
2023-05-22T08:12:19.104Z,99.90
2023-05-22T08:16:01.461Z,99.90
2023-05-22T08:19:43.858Z,99.90
2023-05-22T08:23:26.074Z,99.90
2023-05-22T08:27:08.098Z,99.90
2023-05-22T08:30:51.068Z,99.90
2023-05-22T08:34:33.889Z,99.90
2023-05-22T08:38:16.347Z,99.90
2023-05-22T08:41:59.409Z,99.90
2023-05-22T08:45:43.864Z,99.90
2023-05-22T08:49:26.200Z,99.90
2023-05-22T08:53:11.465Z,99.90
2023-05-22T08:56:57.125Z,99.90
2023-05-22T09:00:40.405Z,99.90
2023-05-22T09:04:24.520Z,99.90
2023-05-22T09:08:19.906Z,99.70
2023-05-22T09:12:03.094Z,99.90
2023-05-22T09:15:45.205Z,99.20
2023-05-22T09:19:27.234Z,97.50
2023-05-22T09:23:18.029Z,97.80
2023-05-22T09:27:04.021Z,97.60
2023-05-22T09:30:49.935Z,96.70
2023-05-22T09:34:32.984Z,97.00
2023-05-22T09:38:17.006Z,96.80
2023-05-22T09:42:01.887Z,95.70
2023-05-22T09:45:43.940Z,96.80
2023-05-22T09:49:25.972Z,94.60
2023-05-22T09:53:09.384Z,94.70
2023-05-22T09:56:56.266Z,94.50
2023-05-22T10:00:39.112Z,94.10
2023-05-22T10:04:23.470Z,94.30
2023-05-22T10:08:15.312Z,93.80
2023-05-22T10:11:59.810Z,94.00
2023-05-22T10:15:42.050Z,94.50
2023-05-22T10:19:27.586Z,93.40
2023-05-22T10:23:10.306Z,92.90
2023-05-22T10:26:54.678Z,92.50
2023-05-22T10:31:19.123Z,91.90
2023-05-22T10:35:30.623Z,92.90
2023-05-22T10:40:00.807Z,91.70
2023-05-22T10:43:43.972Z,91.80
2023-05-22T10:47:26.737Z,89.00
2023-05-22T10:51:09.242Z,89.60
2023-05-22T10:54:54.948Z,86.00
2023-05-22T10:58:37.666Z,84.40
2023-05-22T11:02:29.965Z,82.60
2023-05-22T11:06:32.657Z,81.80
2023-05-22T11:10:14.663Z,79.90
2023-05-22T11:14:06.020Z,77.40
2023-05-22T11:17:51.888Z,72.80
2023-05-22T11:21:44.971Z,68.80
2023-05-22T11:25:28.905Z,69.90
2023-05-22T11:29:11.322Z,64.70
2023-05-22T11:32:53.560Z,61.80
2023-05-22T11:36:35.876Z,60.30
2023-05-22T11:40:26.774Z,56.10
2023-05-22T11:44:09.036Z,55.80
2023-05-22T11:47:51.241Z,51.30
2023-05-22T11:51:33.386Z,50.80
2023-05-22T11:55:15.337Z,51.50
2023-05-22T11:58:57.367Z,49.60
2023-05-22T12:02:59.674Z,49.30
2023-05-22T12:06:42.678Z,49.90
2023-05-22T12:10:26.093Z,50.60
2023-05-22T12:14:12.404Z,48.30
2023-05-22T12:17:58.127Z,48.60
2023-05-22T12:21:42.073Z,48.10
2023-05-22T12:25:25.027Z,49.00
2023-05-22T12:29:07.106Z,46.70
2023-05-22T12:32:50.785Z,46.30
2023-05-22T12:36:40.207Z,46.40
2023-05-22T12:40:22.202Z,47.90
2023-05-22T12:44:04.655Z,47.30
2023-05-22T12:47:47.056Z,48.60
2023-05-22T12:51:31.298Z,49.10
2023-05-22T12:55:13.336Z,47.90
2023-05-22T12:58:56.325Z,49.30
2023-05-22T13:02:38.366Z,49.40
2023-05-22T13:06:20.885Z,49.10
2023-05-22T13:10:04.208Z,48.20
2023-05-22T13:13:46.253Z,48.30
2023-05-22T13:17:28.627Z,47.40
2023-05-22T13:21:10.656Z,47.00
2023-05-22T13:24:52.655Z,48.10
2023-05-22T13:28:34.634Z,48.00
2023-05-22T13:32:19.710Z,48.00
2023-05-22T13:36:01.736Z,50.00
2023-05-22T13:39:43.683Z,48.20
2023-05-22T13:43:26.083Z,49.30
2023-05-22T13:47:08.390Z,50.60
2023-05-22T13:50:50.502Z,49.70
2023-05-22T13:54:32.485Z,49.30
2023-05-22T13:58:14.542Z,47.80
2023-05-22T14:01:56.631Z,47.50
2023-05-22T14:05:38.855Z,47.60
2023-05-22T14:09:21.082Z,46.40
2023-05-22T14:13:04.622Z,47.00
2023-05-22T14:16:46.688Z,48.50
2023-05-22T14:20:28.736Z,48.10
2023-05-22T14:24:11.372Z,46.50
2023-05-22T14:27:53.523Z,46.80
2023-05-22T14:31:51.428Z,46.60
2023-05-22T14:35:34.174Z,47.10
2023-05-22T14:39:16.181Z,46.10
2023-05-22T14:42:58.262Z,45.80
2023-05-22T14:46:40.298Z,45.90
2023-05-22T14:50:22.405Z,46.70
2023-05-22T14:54:05.951Z,46.70
2023-05-22T14:57:48.105Z,46.50
2023-05-22T15:01:30.196Z,45.00
2023-05-22T15:05:12.354Z,46.10
2023-05-22T15:08:54.448Z,45.50
2023-05-22T15:12:36.431Z,44.90
2023-05-22T15:16:18.610Z,45.10
2023-05-22T15:20:00.627Z,45.30
2023-05-22T15:23:43.167Z,44.60
2023-05-22T15:27:25.133Z,45.30
2023-05-22T15:31:08.537Z,45.80
2023-05-22T15:34:50.561Z,46.80
2023-05-22T15:38:32.634Z,47.50
2023-05-22T15:42:14.892Z,47.50
2023-05-22T15:45:56.875Z,46.70
2023-05-22T15:49:38.925Z,47.30
2023-05-22T15:53:23.956Z,48.20
2023-05-22T15:57:06.231Z,48.50
2023-05-22T16:00:48.254Z,49.90
2023-05-22T16:04:30.329Z,50.20
2023-05-22T16:08:13.783Z,49.10
2023-05-22T16:11:55.829Z,49.90
2023-05-22T16:15:39.981Z,51.70
2023-05-22T16:19:23.161Z,50.60
2023-05-22T16:23:05.601Z,51.20
2023-05-22T16:26:47.666Z,52.10
2023-05-22T16:30:29.705Z,54.50
2023-05-22T16:34:11.687Z,53.90
2023-05-22T16:37:53.683Z,54.80
2023-05-22T16:41:37.568Z,55.10
2023-05-22T16:45:19.628Z,57.00
2023-05-22T16:49:01.711Z,57.30
2023-05-22T16:52:43.772Z,58.60
2023-05-22T16:56:26.097Z,59.30
2023-05-22T17:00:11.007Z,58.50
2023-05-22T17:03:54.559Z,58.80
2023-05-22T17:07:36.593Z,60.00
2023-05-22T17:11:18.620Z,60.80
2023-05-22T17:15:00.716Z,60.30
2023-05-22T17:18:42.758Z,60.10
2023-05-22T17:22:25.472Z,61.40
2023-05-22T17:26:07.873Z,62.50
2023-05-22T17:29:49.871Z,62.80
2023-05-22T17:33:32.027Z,63.10
2023-05-22T17:37:14.008Z,63.20
2023-05-22T17:40:56.287Z,63.10
2023-05-22T17:44:38.268Z,64.00
2023-05-22T17:48:27.278Z,63.50
2023-05-22T17:52:09.437Z,63.60
2023-05-22T17:55:52.621Z,63.70
2023-05-22T17:59:34.789Z,64.20
2023-05-22T18:03:20.891Z,64.40
2023-05-22T18:07:02.913Z,63.80
2023-05-22T18:10:44.945Z,62.00
2023-05-22T18:14:26.984Z,65.70
2023-05-22T18:18:11.379Z,65.20
2023-05-22T18:21:55.692Z,65.40
2023-05-22T18:25:37.712Z,65.50
2023-05-22T18:29:19.666Z,66.60
2023-05-22T18:33:02.004Z,67.90
2023-05-22T18:36:44.035Z,68.30
2023-05-22T18:40:26.059Z,69.50
2023-05-22T18:44:08.297Z,70.00
2023-05-22T18:47:50.430Z,70.60
2023-05-22T18:51:32.675Z,71.40
2023-05-22T18:55:14.658Z,72.10
2023-05-22T18:58:56.709Z,72.40
2023-05-22T19:02:38.719Z,73.20
2023-05-22T19:06:20.713Z,73.50
2023-05-22T19:10:03.924Z,73.40
2023-05-22T19:13:47.626Z,74.40
2023-05-22T19:17:29.686Z,73.90
2023-05-22T19:21:11.796Z,74.50
2023-05-22T19:24:53.796Z,75.20
2023-05-22T19:28:36.140Z,74.80
2023-05-22T19:32:18.103Z,75.20
2023-05-22T19:36:02.395Z,75.70
2023-05-22T19:39:44.409Z,76.30
2023-05-22T19:43:26.412Z,76.50
2023-05-22T19:47:08.413Z,77.00
2023-05-22T19:50:50.432Z,77.90
2023-05-22T19:54:32.448Z,78.30
2023-05-22T19:58:14.421Z,79.20
2023-05-22T20:01:56.509Z,79.30
2023-05-22T20:05:38.715Z,79.80
2023-05-22T20:09:21.118Z,80.60
2023-05-22T20:13:04.948Z,81.80
2023-05-22T20:16:47.099Z,82.20
2023-05-22T20:20:29.159Z,82.20
2023-05-22T20:24:21.094Z,83.00
2023-05-22T20:28:04.792Z,83.30
2023-05-22T20:31:46.926Z,83.90
2023-05-22T20:35:30.679Z,84.50
2023-05-22T20:39:12.689Z,85.50
2023-05-22T20:42:54.834Z,86.80
2023-05-22T20:46:36.924Z,86.60
2023-05-22T20:50:19.016Z,86.50
2023-05-22T20:54:01.466Z,87.10
2023-05-22T20:57:43.436Z,87.20
2023-05-22T21:01:25.844Z,87.10
2023-05-22T21:05:08.257Z,88.00
2023-05-22T21:08:52.498Z,88.70
2023-05-22T21:12:35.892Z,89.30
2023-05-22T21:16:17.857Z,89.70
2023-05-22T21:19:59.843Z,89.70
2023-05-22T21:23:41.894Z,90.30
2023-05-22T21:27:23.911Z,90.20
2023-05-22T21:31:06.902Z,90.50
2023-05-22T21:34:48.934Z,90.80
2023-05-22T21:38:30.920Z,91.40
2023-05-22T21:42:14.798Z,91.50
2023-05-22T21:45:56.898Z,92.00
2023-05-22T21:49:39.749Z,92.20
2023-05-22T21:53:22.060Z,92.50
2023-05-22T21:57:04.150Z,92.80
2023-05-22T22:00:46.205Z,93.00
2023-05-22T22:04:28.147Z,93.10
2023-05-22T22:08:10.144Z,93.30
2023-05-22T22:11:52.721Z,93.60
2023-05-22T22:15:36.674Z,94.40
2023-05-22T22:19:18.674Z,94.80
2023-05-22T22:23:01.094Z,95.10
2023-05-22T22:26:45.969Z,95.00
2023-05-22T22:30:27.930Z,95.30
2023-05-22T22:34:09.988Z,95.60
2023-05-22T22:37:51.989Z,96.10
2023-05-22T22:41:33.958Z,96.50
2023-05-22T22:45:16.165Z,97.00
2023-05-22T22:49:01.876Z,97.80
2023-05-22T22:52:46.767Z,98.50
2023-05-22T22:56:29.613Z,99.20
2023-05-22T23:00:13.424Z,99.90
2023-05-22T23:03:55.502Z,99.90
2023-05-22T23:07:37.822Z,99.90
2023-05-22T23:11:19.881Z,99.90
2023-05-22T23:15:02.353Z,99.90
2023-05-22T23:18:44.316Z,99.90
2023-05-22T23:22:26.377Z,99.90
2023-05-22T23:26:08.387Z,99.90
2023-05-22T23:29:50.368Z,99.90
2023-05-22T23:33:32.342Z,99.90
2023-05-22T23:37:14.326Z,99.90
2023-05-22T23:40:56.455Z,99.90
2023-05-22T23:44:38.596Z,99.90
2023-05-22T23:48:20.590Z,99.90
2023-05-22T23:52:02.696Z,99.90
2023-05-22T23:55:44.720Z,99.90
2023-05-22T23:59:26.700Z,99.90
